Azurina — SD2515 — position and weather

sailwx.info

Track history (hours):
 
Tides and Currents Weather Stations Pressure Air Temp Water Temp Dewpoint Dewpoint Depression Visibility Wind Speed Wind Dir Waves Ship Positions

Azurina

Last reported at 2017-Aug-28 07:35 UTC. Time now 2017-Sep-25 17:20 UTC.
Position N 59°45' E 018°44'.
Warning: this ship's position is 28 days out of date.

Length 10 m.

Type: Sailing vessel. MMSI: 265610180.

Date/timePositionNaut miles runAvg speedWind from/ knotsBaromVisibWave heightAir tempDewpointWater temp
2017-Aug-28 07:35N 59°45' E 018°44'0 0.0
2017-Aug-28 07:26N 59°45' E 018°44'2 4.3
2017-Aug-28 07:00N 59°46' E 018°47'3 5.6
2017-Aug-28 06:30N 59°47' E 018°52'3 5.7
2017-Aug-28 06:00N 59°47' E 018°58'1 0.0
2017-Aug-26 12:43N 59°47' E 018°60'0 0.3
2017-Aug-26 12:29N 59°47' E 018°60'2 3.2
2017-Aug-26 11:59N 59°47' E 019°03'2 3.5
2017-Aug-26 11:30N 59°46' E 019°06'2 4.1
2017-Aug-26 11:00N 59°45' E 019°10'2 3.8
2017-Aug-26 10:31N 59°44' E 019°13'3 6.3
2017-Aug-26 10:01N 59°44' E 019°07'3 5.8
2017-Aug-26 09:29N 59°47' E 019°07'2 4.0
2017-Aug-26 09:00N 59°47' E 019°03'2 3.9
2017-Aug-26 08:30N 59°46' E 018°60'0 0.4
2017-Aug-26 08:00N 59°47' E 018°60'0 0.0
2017-Aug-26 07:30N 59°47' E 018°60'0 0.0
2017-Aug-26 07:00N 59°47' E 018°60'0 0.0
2017-Aug-26 06:30N 59°47' E 018°60'0 0.0
2017-Aug-26 06:00N 59°47' E 018°60'0 0.0
2017-Aug-25 15:28N 59°47' E 018°60'0 0.7
2017-Aug-25 15:00N 59°47' E 018°59'6 6.1
2017-Aug-25 13:57N 59°46' E 018°47'2 0.1
2017-Aug-24 09:58N 59°45' E 018°44'2 5.0
2017-Aug-24 09:30N 59°46' E 018°48'3 5.6
2017-Aug-24 09:00N 59°47' E 018°53'3 5.8
2017-Aug-24 08:30N 59°47' E 018°59'0 0.0
2017-Aug-23 15:56N 59°47' E 018°60'0 0.0
2017-Aug-23 15:29N 59°47' E 018°60'1 2.3
2017-Aug-23 15:00N 59°47' E 019°02'5 4.6
2017-Aug-23 14:00N 59°51' E 019°05'3 5.0
2017-Aug-23 13:29N 59°54' E 019°04'9 5.5
2017-Aug-23 11:49N 60°02' E 018°57'2 5.3
2017-Aug-23 11:30N 60°04' E 018°55'3 5.1
2017-Aug-23 11:00N 60°06' E 018°54'2 5.0
2017-Aug-23 10:30N 60°08' E 018°52'3 5.2
2017-Aug-23 10:00N 60°11' E 018°49'4 4.4
2017-Aug-23 09:07N 60°13' E 018°43'0 4.5
2017-Aug-23 09:00N 60°13' E 018°42'2 4.2
2017-Aug-23 08:29N 60°11' E 018°41'2 4.2
2017-Aug-23 07:59N 60°09' E 018°40'1 1.4
2017-Aug-23 07:16N 60°08' E 018°39'  
2017-Aug-20 08:41N 60°08' E 018°39'0 0.0
2017-Aug-20 08:29N 60°08' E 018°39'2 3.4
2017-Aug-20 07:56N 60°08' E 018°42'3 4.9
2017-Aug-20 07:25N 60°06' E 018°46'2 5.7
2017-Aug-20 07:00N 60°04' E 018°46'11 0.5
2017-Aug-19 09:41N 59°54' E 018°55'1 4.8
2017-Aug-19 09:29N 59°53' E 018°57'2 5.0
2017-Aug-19 09:00N 59°51' E 018°59'2 4.6
2017-Aug-19 08:30N 59°49' E 019°02'0 0.0
2017-Aug-18 18:06N 59°49' E 019°02'0 0.0
2017-Aug-18 17:54N 59°49' E 019°02'1 1.6
2017-Aug-18 17:30N 59°49' E 019°02'1 3.0
2017-Aug-18 17:00N 59°48' E 019°05'3 5.5
2017-Aug-18 16:30N 59°47' E 019°10'2 3.5
2017-Aug-18 16:00N 59°46' E 019°13'2 4.1
2017-Aug-18 15:30N 59°45' E 019°15'2 4.5
2017-Aug-18 15:00N 59°44' E 019°19'  
Track history (hours):
 
Tides and Currents Weather Stations Pressure Air Temp Water Temp Dewpoint Dewpoint Depression Visibility Wind Speed Wind Dir Waves Ship Positions

Azurina

Last reported at 2017-Aug-28 07:35 UTC. Time now 2017-Sep-25 17:20 UTC.
Position N 59°45' E 018°44'.
Warning: this ship's position is 28 days out of date.

Length 10 m.

Type: Sailing vessel. MMSI: 265610180.

Date/timePositionNaut miles runAvg speedWind from/ knotsBaromVisibWave heightAir tempDewpointWater temp
2017-Aug-28 07:35N 59°45' E 018°44'0 0.0
2017-Aug-28 07:26N 59°45' E 018°44'2 4.3
2017-Aug-28 07:00N 59°46' E 018°47'3 5.6
2017-Aug-28 06:30N 59°47' E 018°52'3 5.7
2017-Aug-28 06:00N 59°47' E 018°58'1 0.0
2017-Aug-26 12:43N 59°47' E 018°60'0 0.3
2017-Aug-26 12:29N 59°47' E 018°60'2 3.2
2017-Aug-26 11:59N 59°47' E 019°03'2 3.5
2017-Aug-26 11:30N 59°46' E 019°06'2 4.1
2017-Aug-26 11:00N 59°45' E 019°10'2 3.8
2017-Aug-26 10:31N 59°44' E 019°13'3 6.3
2017-Aug-26 10:01N 59°44' E 019°07'3 5.8
2017-Aug-26 09:29N 59°47' E 019°07'2 4.0
2017-Aug-26 09:00N 59°47' E 019°03'2 3.9
2017-Aug-26 08:30N 59°46' E 018°60'0 0.4
2017-Aug-26 08:00N 59°47' E 018°60'0 0.0
2017-Aug-26 07:30N 59°47' E 018°60'0 0.0
2017-Aug-26 07:00N 59°47' E 018°60'0 0.0
2017-Aug-26 06:30N 59°47' E 018°60'0 0.0
2017-Aug-26 06:00N 59°47' E 018°60'0 0.0
2017-Aug-25 15:28N 59°47' E 018°60'0 0.7
2017-Aug-25 15:00N 59°47' E 018°59'6 6.1
2017-Aug-25 13:57N 59°46' E 018°47'2 0.1
2017-Aug-24 09:58N 59°45' E 018°44'2 5.0
2017-Aug-24 09:30N 59°46' E 018°48'3 5.6
2017-Aug-24 09:00N 59°47' E 018°53'3 5.8
2017-Aug-24 08:30N 59°47' E 018°59'0 0.0
2017-Aug-23 15:56N 59°47' E 018°60'0 0.0
2017-Aug-23 15:29N 59°47' E 018°60'1 2.3
2017-Aug-23 15:00N 59°47' E 019°02'5 4.6
2017-Aug-23 14:00N 59°51' E 019°05'3 5.0
2017-Aug-23 13:29N 59°54' E 019°04'9 5.5
2017-Aug-23 11:49N 60°02' E 018°57'2 5.3
2017-Aug-23 11:30N 60°04' E 018°55'3 5.1
2017-Aug-23 11:00N 60°06' E 018°54'2 5.0
2017-Aug-23 10:30N 60°08' E 018°52'3 5.2
2017-Aug-23 10:00N 60°11' E 018°49'4 4.4
2017-Aug-23 09:07N 60°13' E 018°43'0 4.5
2017-Aug-23 09:00N 60°13' E 018°42'2 4.2
2017-Aug-23 08:29N 60°11' E 018°41'2 4.2
2017-Aug-23 07:59N 60°09' E 018°40'1 1.4
2017-Aug-23 07:16N 60°08' E 018°39'  
2017-Aug-20 08:41N 60°08' E 018°39'0 0.0
2017-Aug-20 08:29N 60°08' E 018°39'2 3.4
2017-Aug-20 07:56N 60°08' E 018°42'3 4.9
2017-Aug-20 07:25N 60°06' E 018°46'2 5.7
2017-Aug-20 07:00N 60°04' E 018°46'11 0.5
2017-Aug-19 09:41N 59°54' E 018°55'1 4.8
2017-Aug-19 09:29N 59°53' E 018°57'2 5.0
2017-Aug-19 09:00N 59°51' E 018°59'2 4.6
2017-Aug-19 08:30N 59°49' E 019°02'0 0.0
2017-Aug-18 18:06N 59°49' E 019°02'0 0.0
2017-Aug-18 17:54N 59°49' E 019°02'1 1.6
2017-Aug-18 17:30N 59°49' E 019°02'1 3.0
2017-Aug-18 17:00N 59°48' E 019°05'3 5.5
2017-Aug-18 16:30N 59°47' E 019°10'2 3.5
2017-Aug-18 16:00N 59°46' E 019°13'2 4.1
2017-Aug-18 15:30N 59°45' E 019°15'2 4.5
2017-Aug-18 15:00N 59°44' E 019°19'  

Dump ship's entire track history